createdAt,value
2018-04-13T00:01:11.319Z,16.00
2018-04-13T00:03:38.787Z,16.00
2018-04-13T00:06:06.236Z,16.00
2018-04-13T00:08:33.859Z,16.00
2018-04-13T00:11:01.411Z,16.00
2018-04-13T00:13:28.899Z,16.00
2018-04-13T00:15:56.965Z,16.00
2018-04-13T00:18:24.828Z,16.00
2018-04-13T00:20:52.318Z,15.90
2018-04-13T00:23:19.768Z,15.90
2018-04-13T00:25:47.261Z,15.90
2018-04-13T00:28:15.529Z,15.90
2018-04-13T00:30:42.979Z,15.90
2018-04-13T00:33:10.488Z,15.90
2018-04-13T00:35:38.395Z,15.80
2018-04-13T00:38:05.840Z,15.80
2018-04-13T00:40:34.019Z,15.80
2018-04-13T00:43:01.910Z,15.80
2018-04-13T00:45:30.183Z,15.80
2018-04-13T00:47:57.903Z,15.70
2018-04-13T00:50:25.373Z,15.70
2018-04-13T00:53:04.792Z,15.70
2018-04-13T00:55:33.716Z,15.70
2018-04-13T00:58:01.155Z,15.60
2018-04-13T01:00:28.607Z,15.60
2018-04-13T01:02:56.066Z,15.60
2018-04-13T01:05:23.511Z,15.60
2018-04-13T01:07:50.992Z,15.50
2018-04-13T01:10:18.959Z,15.50
2018-04-13T01:12:46.944Z,15.50
2018-04-13T01:15:14.482Z,15.50
2018-04-13T01:17:44.067Z,15.50
2018-04-13T01:20:11.516Z,15.40
2018-04-13T01:22:38.959Z,15.40
2018-04-13T01:25:06.435Z,15.40
2018-04-13T01:27:33.996Z,15.40
2018-04-13T01:30:01.440Z,15.40
2018-04-13T01:32:29.136Z,15.40
2018-04-13T01:34:58.278Z,15.30
2018-04-13T01:37:26.914Z,15.30
2018-04-13T01:39:54.371Z,15.30
2018-04-13T01:42:22.334Z,15.20
2018-04-13T01:44:49.791Z,15.20
2018-04-13T01:47:17.294Z,15.10
2018-04-13T01:49:45.564Z,15.00
2018-04-13T01:52:13.856Z,15.00
2018-04-13T01:54:41.876Z,15.00
2018-04-13T01:57:09.348Z,15.00
2018-04-13T01:59:36.821Z,15.00
2018-04-13T02:02:05.397Z,14.90
2018-04-13T02:04:33.656Z,14.90
2018-04-13T02:07:01.523Z,14.90
2018-04-13T02:09:29.011Z,14.80
2018-04-13T02:11:57.227Z,14.80
2018-04-13T02:14:24.736Z,14.70
2018-04-13T02:16:53.332Z,14.70
2018-04-13T02:19:21.274Z,14.60
2018-04-13T02:21:48.721Z,14.60
2018-04-13T02:24:16.201Z,14.50
2018-04-13T02:26:44.412Z,14.50
2018-04-13T02:29:12.070Z,14.40
2018-04-13T02:31:40.080Z,14.50
2018-04-13T02:34:07.842Z,14.50
2018-04-13T02:36:35.696Z,14.50
2018-04-13T02:39:03.160Z,14.40
2018-04-13T02:41:31.948Z,14.40
2018-04-13T02:43:59.395Z,14.40
2018-04-13T02:46:27.031Z,14.40
2018-04-13T02:48:54.470Z,14.40
2018-04-13T02:51:21.935Z,14.40
2018-04-13T02:53:49.392Z,14.40
2018-04-13T02:56:17.409Z,14.40
2018-04-13T02:58:44.860Z,14.50
2018-04-13T03:01:12.346Z,14.50
2018-04-13T03:03:39.784Z,14.50
2018-04-13T03:06:07.852Z,14.50
2018-04-13T03:08:36.435Z,14.50
2018-04-13T03:11:03.910Z,14.40
2018-04-13T03:13:31.358Z,14.40
2018-04-13T03:15:59.443Z,14.40
2018-04-13T03:18:27.995Z,14.20
2018-04-13T03:20:55.445Z,14.20
2018-04-13T03:23:22.938Z,14.20
2018-04-13T03:25:51.497Z,14.00
2018-04-13T03:28:18.955Z,14.00
2018-04-13T03:30:46.479Z,13.90
2018-04-13T03:33:14.379Z,13.90
2018-04-13T03:35:42.048Z,13.90
2018-04-13T03:38:09.902Z,13.80
2018-04-13T03:40:37.971Z,13.80
2018-04-13T03:43:05.877Z,13.80
2018-04-13T03:45:34.494Z,13.70
2018-04-13T03:48:02.361Z,13.70
2018-04-13T03:50:29.838Z,13.70
2018-04-13T03:52:57.328Z,13.70
2018-04-13T03:55:25.888Z,13.70
2018-04-13T03:57:53.507Z,13.60
2018-04-13T04:00:20.990Z,13.70
2018-04-13T04:02:48.449Z,13.70
2018-04-13T04:05:15.918Z,13.70
2018-04-13T04:07:43.380Z,13.70
2018-04-13T04:10:11.455Z,13.70
2018-04-13T04:12:39.349Z,13.70
2018-04-13T04:15:08.048Z,13.70
2018-04-13T04:17:35.762Z,13.70
2018-04-13T04:23:21.152Z,13.70
2018-04-13T04:26:00.701Z,13.60
2018-04-13T04:28:28.199Z,13.60
2018-04-13T04:30:55.672Z,13.60
2018-04-13T04:33:23.471Z,13.60
2018-04-13T04:35:51.237Z,13.60
2018-04-13T04:38:18.690Z,13.60
2018-04-13T04:40:46.665Z,13.60
2018-04-13T04:43:14.650Z,13.70
2018-04-13T04:45:42.094Z,13.70
2018-04-13T04:48:09.538Z,13.70
2018-04-13T04:50:37.028Z,13.70
2018-04-13T04:53:05.237Z,13.80
2018-04-13T04:55:32.964Z,13.80
2018-04-13T04:58:01.162Z,13.80
2018-04-13T05:00:28.695Z,13.80
2018-04-13T05:02:56.130Z,13.80
2018-04-13T05:05:23.786Z,13.70
2018-04-13T05:07:51.244Z,13.80
2018-04-13T05:10:18.720Z,13.70
2018-04-13T05:12:46.167Z,13.70
2018-04-13T05:15:13.648Z,13.70
2018-04-13T05:17:42.512Z,13.70
2018-04-13T05:20:10.210Z,13.70
2018-04-13T05:22:38.437Z,13.70
2018-04-13T05:25:06.280Z,13.70
2018-04-13T05:27:33.740Z,13.70
2018-04-13T05:30:01.210Z,13.70
2018-04-13T05:32:28.685Z,13.60
2018-04-13T05:34:56.638Z,13.60
2018-04-13T05:37:24.122Z,13.50
2018-04-13T05:39:51.568Z,13.50
2018-04-13T05:42:20.253Z,13.40
2018-04-13T05:44:47.726Z,13.40
2018-04-13T05:47:15.170Z,13.40
2018-04-13T05:49:42.923Z,13.40
2018-04-13T05:52:10.461Z,13.40
2018-04-13T05:54:39.170Z,13.50
2018-04-13T05:57:07.650Z,13.50
2018-04-13T05:59:35.107Z,13.50
2018-04-13T06:02:02.639Z,13.60
2018-04-13T06:04:30.106Z,13.60
2018-04-13T06:06:57.608Z,13.60
2018-04-13T06:09:25.824Z,13.60
2018-04-13T06:11:53.304Z,13.60
2018-04-13T06:14:21.275Z,13.70
2018-04-13T06:16:49.125Z,13.70
2018-04-13T06:19:17.112Z,13.70
2018-04-13T06:21:44.563Z,13.80
2018-04-13T06:24:13.261Z,13.90
2018-04-13T06:26:40.636Z,13.90
2018-04-13T06:29:09.396Z,14.10
2018-04-13T06:31:37.268Z,14.10
2018-04-13T06:34:05.508Z,14.20
2018-04-13T06:36:33.454Z,14.20
2018-04-13T06:39:00.914Z,14.30
2018-04-13T06:41:29.726Z,14.30
2018-04-13T06:43:57.183Z,14.40
2018-04-13T06:46:25.546Z,14.40
2018-04-13T06:48:53.295Z,14.40
2018-04-13T06:51:20.705Z,14.50
2018-04-13T06:53:48.158Z,14.50
2018-04-13T06:56:15.832Z,14.50
2018-04-13T06:58:43.276Z,14.50
2018-04-13T07:01:10.771Z,14.50
2018-04-13T07:03:38.979Z,14.50
2018-04-13T07:06:06.439Z,14.50
2018-04-13T07:08:34.642Z,14.60
2018-04-13T07:11:02.303Z,14.50
2018-04-13T07:13:29.748Z,14.60
2018-04-13T07:15:59.020Z,14.70
2018-04-13T07:18:26.648Z,14.70
2018-04-13T07:20:55.195Z,14.90
2018-04-13T07:23:22.652Z,14.80
2018-04-13T07:25:50.279Z,14.90
2018-04-13T07:28:17.728Z,15.00
2018-04-13T07:30:45.239Z,15.10
2018-04-13T07:33:13.338Z,15.20
2018-04-13T07:35:40.408Z,15.20
2018-04-13T07:38:07.853Z,15.20
2018-04-13T07:40:35.588Z,15.20
2018-04-13T07:43:03.533Z,15.20
2018-04-13T07:45:30.995Z,15.20
2018-04-13T07:47:58.462Z,15.20
2018-04-13T07:50:27.203Z,15.30
2018-04-13T07:52:55.563Z,15.30
2018-04-13T07:55:23.343Z,15.30
2018-04-13T07:57:50.855Z,15.30
2018-04-13T08:00:19.466Z,15.40
2018-04-13T08:02:46.880Z,15.30
2018-04-13T08:05:14.349Z,15.40
2018-04-13T08:07:41.858Z,15.40
2018-04-13T08:10:09.305Z,15.50
2018-04-13T08:12:37.086Z,15.50
2018-04-13T08:15:04.264Z,15.50
2018-04-13T08:17:32.124Z,15.60
2018-04-13T08:19:59.978Z,15.70
2018-04-13T08:22:28.131Z,15.70
2018-04-13T08:24:56.484Z,15.80
2018-04-13T08:27:24.697Z,16.00
2018-04-13T08:29:53.032Z,15.90
2018-04-13T08:32:20.544Z,16.00
2018-04-13T08:34:49.107Z,16.00
2018-04-13T08:37:16.903Z,16.10
2018-04-13T08:39:44.348Z,16.10
2018-04-13T08:42:12.528Z,16.20
2018-04-13T08:44:40.251Z,16.20
2018-04-13T08:47:07.707Z,16.30
2018-04-13T08:49:35.176Z,16.30
2018-04-13T08:52:02.628Z,16.40
2018-04-13T08:54:30.489Z,16.40
2018-04-13T08:56:58.403Z,16.40
2018-04-13T08:59:26.308Z,16.40
2018-04-13T09:01:53.764Z,16.40
2018-04-13T09:04:21.241Z,16.40
2018-04-13T09:06:48.786Z,16.40
2018-04-13T09:09:16.258Z,16.40
2018-04-13T09:11:43.800Z,16.40
2018-04-13T09:14:11.513Z,16.50
2018-04-13T09:16:40.727Z,16.50
2018-04-13T09:19:08.482Z,16.50
2018-04-13T09:21:35.931Z,16.60
2018-04-13T09:24:03.478Z,16.60
2018-04-13T09:26:31.356Z,16.70
2018-04-13T09:28:59.035Z,16.70
2018-04-13T09:31:26.834Z,16.70
2018-04-13T09:33:54.403Z,16.70
2018-04-13T09:36:22.653Z,16.70
2018-04-13T09:38:50.889Z,16.80
2018-04-13T09:41:19.016Z,16.80
2018-04-13T09:43:46.473Z,16.90
2018-04-13T09:46:13.941Z,17.00
2018-04-13T09:48:41.625Z,17.10
2018-04-13T09:51:09.059Z,17.10
2018-04-13T09:53:36.540Z,17.10
2018-04-13T09:56:04.406Z,17.20
2018-04-13T09:58:31.847Z,17.30
2018-04-13T10:01:00.244Z,17.40
2018-04-13T10:03:27.687Z,17.40
2018-04-13T10:05:55.329Z,17.50
2018-04-13T10:08:22.783Z,17.50
2018-04-13T10:10:51.274Z,17.50
2018-04-13T10:13:18.725Z,17.50
2018-04-13T10:15:46.657Z,17.50
2018-04-13T10:18:14.602Z,17.60
2018-04-13T10:20:42.050Z,17.60
2018-04-13T10:23:09.520Z,17.60
2018-04-13T10:25:37.262Z,17.60
2018-04-13T10:28:04.745Z,17.60
2018-04-13T10:30:32.966Z,17.60
2018-04-13T10:33:00.502Z,17.50
2018-04-13T10:35:29.785Z,17.50
2018-04-13T10:37:57.622Z,17.50
2018-04-13T10:40:25.070Z,17.50
2018-04-13T10:42:52.839Z,17.50
2018-04-13T10:45:20.282Z,17.50
2018-04-13T10:47:47.839Z,17.50
2018-04-13T10:50:15.273Z,17.50
2018-04-13T10:52:42.803Z,17.50
2018-04-13T10:55:11.467Z,17.60
2018-04-13T10:57:39.682Z,17.60
2018-04-13T11:00:07.146Z,17.60
2018-04-13T11:02:34.593Z,17.60
2018-04-13T11:05:02.329Z,17.70
2018-04-13T11:07:29.798Z,17.70
2018-04-13T11:09:58.036Z,17.80
2018-04-13T11:12:25.479Z,17.80
2018-04-13T11:14:52.947Z,17.80
2018-04-13T11:17:20.925Z,17.80
2018-04-13T11:19:48.585Z,17.80
2018-04-13T11:22:16.053Z,17.80
2018-04-13T11:24:43.522Z,17.70
2018-04-13T11:27:11.361Z,17.70
2018-04-13T11:29:38.830Z,17.70
2018-04-13T11:32:06.275Z,17.80
2018-04-13T11:34:33.841Z,17.80
2018-04-13T11:37:01.616Z,17.90
2018-04-13T11:39:29.850Z,17.80
2018-04-13T11:41:57.769Z,17.80
2018-04-13T11:44:26.001Z,17.80
2018-04-13T11:46:53.446Z,17.80
2018-04-13T11:49:20.908Z,17.80
2018-04-13T11:51:48.403Z,17.80
2018-04-13T11:54:15.830Z,17.80
2018-04-13T11:56:43.721Z,17.80
2018-04-13T11:59:11.749Z,17.80
2018-04-13T12:01:39.195Z,17.80
2018-04-13T12:04:06.663Z,17.80
2018-04-13T12:06:34.146Z,17.80
2018-04-13T12:09:01.602Z,17.80
2018-04-13T12:11:29.074Z,17.80
2018-04-13T12:13:56.514Z,17.70
2018-04-13T12:16:24.383Z,17.60
2018-04-13T12:18:52.259Z,17.50
2018-04-13T12:21:19.720Z,17.40
2018-04-13T12:23:48.391Z,17.20
2018-04-13T12:26:17.313Z,17.20
2018-04-13T12:28:44.763Z,17.10
2018-04-13T12:31:12.204Z,17.10
2018-04-13T12:33:39.784Z,17.10
2018-04-13T12:36:07.485Z,17.10
2018-04-13T12:38:34.947Z,17.10
2018-04-13T12:41:02.840Z,17.10
2018-04-13T12:43:30.290Z,17.10
2018-04-13T12:45:57.779Z,17.10
2018-04-13T12:48:26.731Z,17.10
2018-04-13T12:50:54.522Z,17.10
2018-04-13T12:53:21.964Z,17.10
2018-04-13T12:55:49.776Z,17.10
2018-04-13T12:58:17.191Z,17.10
2018-04-13T13:00:44.665Z,17.10
2018-04-13T13:03:13.000Z,17.10
2018-04-13T13:05:40.434Z,17.10
2018-04-13T13:08:08.149Z,17.10
2018-04-13T13:10:35.622Z,17.10
2018-04-13T13:13:03.126Z,17.10
2018-04-13T13:15:31.747Z,17.10
2018-04-13T13:17:59.972Z,17.10
2018-04-13T13:20:28.303Z,17.10
2018-04-13T13:22:56.529Z,17.10
2018-04-13T13:25:23.983Z,17.10
2018-04-13T13:27:51.694Z,17.10
2018-04-13T13:30:19.153Z,17.10
2018-04-13T13:32:46.669Z,17.10
2018-04-13T13:35:15.084Z,17.00
2018-04-13T13:37:42.531Z,17.00
2018-04-13T13:40:09.996Z,17.00
2018-04-13T13:42:37.805Z,16.90
2018-04-13T13:45:06.733Z,16.90
2018-04-13T13:47:34.767Z,16.90
2018-04-13T13:50:03.065Z,16.90
2018-04-13T13:52:30.622Z,16.80
2018-04-13T13:54:58.468Z,16.80
2018-04-13T13:57:26.702Z,16.80
2018-04-13T13:59:54.163Z,16.80
2018-04-13T14:02:22.545Z,16.70
2018-04-13T14:04:50.021Z,16.70
2018-04-13T14:07:18.250Z,16.70
2018-04-13T14:09:45.737Z,16.70
2018-04-13T14:12:15.291Z,16.70
2018-04-13T14:14:42.992Z,16.70
2018-04-13T14:17:10.919Z,16.70
2018-04-13T14:19:38.922Z,16.80
2018-04-13T14:22:06.415Z,16.90
2018-04-13T14:24:34.624Z,16.90
2018-04-13T14:27:02.659Z,16.80
2018-04-13T14:29:31.187Z,16.80
2018-04-13T14:31:58.673Z,16.80
2018-04-13T14:34:26.132Z,16.80
2018-04-13T14:36:53.986Z,16.80
2018-04-13T14:39:21.446Z,16.80
2018-04-13T14:41:49.173Z,16.90
2018-04-13T14:44:16.629Z,16.80
2018-04-13T14:46:44.099Z,16.80
2018-04-13T14:49:11.539Z,16.80
2018-04-13T14:51:39.015Z,16.80
2018-04-13T14:54:06.456Z,16.80
2018-04-13T14:56:34.318Z,16.80
2018-04-13T14:59:02.119Z,16.80
2018-04-13T15:01:29.561Z,16.80
2018-04-13T15:03:57.067Z,16.80
2018-04-13T15:06:25.328Z,16.90
2018-04-13T15:08:53.078Z,16.90
2018-04-13T15:11:21.851Z,16.90
2018-04-13T15:13:49.648Z,16.90
2018-04-13T15:16:18.339Z,16.70
2018-04-13T15:18:46.732Z,16.70
2018-04-13T15:21:14.183Z,16.70
2018-04-13T15:23:42.011Z,16.60
2018-04-13T15:26:09.687Z,16.50
2018-04-13T15:28:37.331Z,16.50
2018-04-13T15:31:04.780Z,16.50
2018-04-13T15:33:32.519Z,16.40
2018-04-13T15:36:00.329Z,16.50
2018-04-13T15:38:27.820Z,16.50
2018-04-13T15:40:55.274Z,16.50
2018-04-13T15:43:23.201Z,16.40
2018-04-13T15:45:50.696Z,16.40
2018-04-13T15:48:19.005Z,16.30
2018-04-13T15:50:46.485Z,16.40
2018-04-13T15:53:13.953Z,16.30
2018-04-13T15:55:41.830Z,16.30
2018-04-13T15:58:09.289Z,16.30
2018-04-13T16:00:37.392Z,16.20
2018-04-13T16:03:04.854Z,16.20
2018-04-13T16:05:32.323Z,16.10
2018-04-13T16:07:59.787Z,16.00
2018-04-13T16:10:27.258Z,16.00
2018-04-13T16:12:55.715Z,15.90
2018-04-13T16:15:23.407Z,15.80
2018-04-13T16:17:52.203Z,15.80
2018-04-13T16:20:19.683Z,15.80
2018-04-13T16:22:47.998Z,15.80
2018-04-13T16:25:16.005Z,15.80
2018-04-13T16:27:43.771Z,15.80
2018-04-13T16:30:11.281Z,15.80
2018-04-13T16:32:39.254Z,15.80
2018-04-13T16:35:07.163Z,15.90
2018-04-13T16:37:34.649Z,15.90
2018-04-13T16:40:02.140Z,15.90
2018-04-13T16:42:29.857Z,15.90
2018-04-13T16:44:58.122Z,16.00
2018-04-13T16:47:25.800Z,15.90
2018-04-13T16:49:53.253Z,16.00
2018-04-13T16:52:20.895Z,16.00
2018-04-13T16:54:48.902Z,16.10
2018-04-13T16:57:16.364Z,16.10
2018-04-13T16:59:44.711Z,16.10
2018-04-13T17:02:12.351Z,16.00
2018-04-13T17:04:39.800Z,16.10
2018-04-13T17:07:07.931Z,16.10
2018-04-13T17:09:35.407Z,16.10
2018-04-13T17:12:03.941Z,16.10
2018-04-13T17:14:32.181Z,16.10
2018-04-13T17:17:00.064Z,16.10
2018-04-13T17:19:28.111Z,16.20
2018-04-13T17:21:55.898Z,16.10
2018-04-13T17:24:23.766Z,16.10
2018-04-13T17:26:51.934Z,16.10
2018-04-13T17:29:19.758Z,16.10
2018-04-13T17:31:47.159Z,16.10
2018-04-13T17:34:14.630Z,16.10
2018-04-13T17:36:43.295Z,16.00
2018-04-13T17:39:10.752Z,16.00
2018-04-13T17:41:39.197Z,16.00
2018-04-13T17:44:06.663Z,16.00
2018-04-13T17:46:34.360Z,16.10
2018-04-13T17:49:01.819Z,16.10
2018-04-13T17:51:29.513Z,16.10
2018-04-13T17:53:56.925Z,16.10
2018-04-13T17:56:24.866Z,16.10
2018-04-13T17:58:52.295Z,16.00
2018-04-13T18:01:20.660Z,15.80
2018-04-13T18:03:48.883Z,15.70
2018-04-13T18:06:16.628Z,15.70
2018-04-13T18:08:44.335Z,15.70
2018-04-13T18:11:11.795Z,15.60
2018-04-13T18:13:39.624Z,15.60
2018-04-13T18:16:07.089Z,15.60
2018-04-13T18:18:34.819Z,15.50
2018-04-13T18:21:03.123Z,15.50
2018-04-13T18:23:30.552Z,15.50
2018-04-13T18:25:59.304Z,15.50
2018-04-13T18:28:27.333Z,15.50
2018-04-13T18:30:54.932Z,15.50
2018-04-13T18:33:22.380Z,15.50
2018-04-13T18:35:50.963Z,15.50
2018-04-13T18:38:18.463Z,15.50
2018-04-13T18:40:46.723Z,15.50
2018-04-13T18:43:14.579Z,15.50
2018-04-13T18:45:42.039Z,15.50
2018-04-13T18:48:09.549Z,15.50
2018-04-13T18:50:37.087Z,15.40
2018-04-13T18:53:04.542Z,15.40
2018-04-13T18:55:33.287Z,15.40
2018-04-13T18:58:00.804Z,15.40
2018-04-13T19:00:28.207Z,15.40
2018-04-13T19:02:57.187Z,15.30
2018-04-13T19:05:24.921Z,15.40
2018-04-13T19:07:52.753Z,15.40
2018-04-13T19:10:21.619Z,15.40
2018-04-13T19:12:49.590Z,15.40
2018-04-13T19:15:17.036Z,15.50
2018-04-13T19:17:44.998Z,15.50
2018-04-13T19:20:12.436Z,15.50
2018-04-13T19:22:39.961Z,15.50
2018-04-13T19:25:08.917Z,15.60
2018-04-13T19:27:37.332Z,15.60
2018-04-13T19:30:05.361Z,15.60
2018-04-13T19:32:32.843Z,15.60
2018-04-13T19:35:01.603Z,15.70
2018-04-13T19:37:29.266Z,15.60
2018-04-13T19:39:56.782Z,15.70
2018-04-13T19:42:24.484Z,15.70
2018-04-13T19:44:52.111Z,15.70
2018-04-13T19:47:19.593Z,15.70
2018-04-13T19:49:47.044Z,15.70
2018-04-13T19:52:14.624Z,15.60
2018-04-13T19:54:45.139Z,15.60
2018-04-13T19:57:12.591Z,15.50
2018-04-13T19:59:40.038Z,15.50
2018-04-13T20:02:07.521Z,15.40
2018-04-13T20:04:35.395Z,15.40
2018-04-13T20:07:03.359Z,15.50
2018-04-13T20:09:31.630Z,15.40
2018-04-13T20:11:59.391Z,15.40
2018-04-13T20:14:26.888Z,15.40
2018-04-13T20:16:55.431Z,15.50
2018-04-13T20:19:24.031Z,15.50
2018-04-13T20:21:51.486Z,15.50
2018-04-13T20:24:19.593Z,15.60
2018-04-13T20:26:47.515Z,15.60
2018-04-13T20:29:15.490Z,15.60
2018-04-13T20:31:43.300Z,15.50
2018-04-13T20:34:10.902Z,15.50
2018-04-13T20:36:38.784Z,15.50
2018-04-13T20:39:07.007Z,15.50
2018-04-13T20:41:34.758Z,15.50
2018-04-13T20:44:02.212Z,15.50
2018-04-13T20:46:29.926Z,15.50
2018-04-13T20:48:57.387Z,15.50
2018-04-13T20:51:24.858Z,15.50
2018-04-13T20:53:52.337Z,15.50
2018-04-13T20:56:21.091Z,15.60
2018-04-13T20:58:48.552Z,15.60
2018-04-13T21:01:15.996Z,15.60
2018-04-13T21:03:43.459Z,15.60
2018-04-13T21:06:10.988Z,15.60
2018-04-13T21:08:38.975Z,15.60
2018-04-13T21:11:06.903Z,15.60
2018-04-13T21:13:34.367Z,15.60
2018-04-13T21:16:02.163Z,15.60
2018-04-13T21:18:30.152Z,15.60
2018-04-13T21:20:57.599Z,15.60
2018-04-13T21:23:25.089Z,15.50
2018-04-13T21:25:53.021Z,15.50
2018-04-13T21:28:20.785Z,15.50
2018-04-13T21:30:48.715Z,15.40
2018-04-13T21:33:16.210Z,15.40
2018-04-13T21:35:44.071Z,15.40
2018-04-13T21:38:11.542Z,15.40
2018-04-13T21:40:39.758Z,15.40
2018-04-13T21:43:07.600Z,15.40
2018-04-13T21:45:35.826Z,15.30
2018-04-13T21:48:03.306Z,15.30
2018-04-13T21:50:31.698Z,15.20
2018-04-13T21:52:59.960Z,15.20
2018-04-13T21:55:28.021Z,15.20
2018-04-13T21:57:55.534Z,15.10
2018-04-13T22:00:23.299Z,15.10
2018-04-13T22:02:51.113Z,15.00
2018-04-13T22:05:19.011Z,15.00
2018-04-13T22:07:47.628Z,15.00
2018-04-13T22:10:15.750Z,15.00
2018-04-13T22:12:55.221Z,15.00
2018-04-13T22:15:25.800Z,15.10
2018-04-13T22:17:54.860Z,15.10
2018-04-13T22:20:22.552Z,15.10
2018-04-13T22:22:50.009Z,15.00
2018-04-13T22:25:17.573Z,14.90
2018-04-13T22:27:45.097Z,14.90
2018-04-13T22:30:13.204Z,14.90
2018-04-13T22:32:41.271Z,14.90
2018-04-13T22:35:09.039Z,14.90
2018-04-13T22:37:36.488Z,14.80
2018-04-13T22:40:03.999Z,14.80
2018-04-13T22:42:32.499Z,14.80
2018-04-13T22:45:00.195Z,14.80
2018-04-13T22:47:27.663Z,14.80
2018-04-13T22:49:55.314Z,14.80
2018-04-13T22:52:22.786Z,14.80
2018-04-13T22:54:50.910Z,14.80
2018-04-13T22:57:18.344Z,14.70
2018-04-13T22:59:46.662Z,14.70
2018-04-13T23:02:14.121Z,14.80
2018-04-13T23:04:42.208Z,14.80
2018-04-13T23:07:10.271Z,14.80
2018-04-13T23:09:38.143Z,14.70
2018-04-13T23:12:05.594Z,14.70
2018-04-13T23:14:33.329Z,14.70
2018-04-13T23:17:00.770Z,14.60
2018-04-13T23:19:28.604Z,14.60
2018-04-13T23:21:57.687Z,14.60
2018-04-13T23:24:25.130Z,14.60
2018-04-13T23:26:53.272Z,14.60
2018-04-13T23:29:22.024Z,14.50
2018-04-13T23:31:50.236Z,14.50
2018-04-13T23:34:17.708Z,14.50
2018-04-13T23:36:45.616Z,14.50
2018-04-13T23:39:14.172Z,14.50
2018-04-13T23:41:41.901Z,14.50
2018-04-13T23:44:09.364Z,14.50
2018-04-13T23:46:36.926Z,14.50
2018-04-13T23:49:04.405Z,14.50
2018-04-13T23:51:32.163Z,14.50
2018-04-13T23:53:59.632Z,14.50
2018-04-13T23:56:27.517Z,14.60
2018-04-13T23:58:54.956Z,14.60
